C6042 KPIE-KPIE
Flight info
| Callsign | C6042 |
|---|---|
| Flight time | 1h 39m |
| Altitude | 1000 |
| Route | / |
| Aircraft | H60/M-GV/L |
Departure
| Time | 2026-04-30 13:11 |
|---|---|
| Airport | St. Petersburg Clearwater International Airport (KPIE) |
Arrival
| Time | 2026-04-30 14:51 |
|---|---|
| Airport | St. Petersburg Clearwater International Airport (KPIE) |
| Time | Latitude | Longitude | Altitude | Speed | Heading |
|---|---|---|---|---|---|
| 2026-04-30 13:01 | 27.91293 | -82.69471 | 20 ft | 0 kts | 111° |
| 2026-04-30 13:11 | 27.91290 | -82.69467 | 12 ft | 2 kts | 121° |
| 2026-04-30 13:11 | 27.91287 | -82.69521 | 113 ft | 29 kts | 258° |
| 2026-04-30 13:11 | 27.91044 | -82.69932 | 431 ft | 93 kts | 226° |
| 2026-04-30 13:11 | 27.90353 | -82.70341 | 741 ft | 130 kts | 200° |
| 2026-04-30 13:12 | 27.89434 | -82.70679 | 934 ft | 145 kts | 207° |
| 2026-04-30 13:12 | 27.88530 | -82.71218 | 910 ft | 144 kts | 212° |
| 2026-04-30 13:12 | 27.87634 | -82.71771 | 1020 ft | 146 kts | 212° |
| 2026-04-30 13:13 | 27.85840 | -82.72903 | 991 ft | 146 kts | 212° |
| 2026-04-30 13:13 | 27.84947 | -82.73459 | 991 ft | 147 kts | 212° |
| 2026-04-30 13:13 | 27.83164 | -82.74563 | 987 ft | 145 kts | 212° |
| 2026-04-30 13:14 | 27.82268 | -82.75128 | 991 ft | 147 kts | 212° |
| 2026-04-30 13:14 | 27.81379 | -82.75694 | 987 ft | 147 kts | 212° |
| 2026-04-30 13:14 | 27.79584 | -82.76827 | 966 ft | 148 kts | 212° |
| 2026-04-30 13:15 | 27.78682 | -82.77386 | 963 ft | 148 kts | 212° |
| 2026-04-30 13:15 | 27.76905 | -82.78493 | 958 ft | 145 kts | 212° |
| 2026-04-30 13:15 | 27.76019 | -82.79033 | 957 ft | 147 kts | 212° |
| 2026-04-30 13:16 | 27.75119 | -82.79582 | 956 ft | 146 kts | 212° |
| 2026-04-30 13:16 | 27.74228 | -82.80108 | 954 ft | 146 kts | 212° |
| 2026-04-30 13:16 | 27.73342 | -82.80649 | 956 ft | 149 kts | 212° |
| 2026-04-30 13:17 | 27.71561 | -82.81763 | 953 ft | 147 kts | 212° |
| 2026-04-30 13:17 | 27.70658 | -82.82320 | 951 ft | 148 kts | 212° |
| 2026-04-30 13:17 | 27.68854 | -82.83420 | 957 ft | 143 kts | 212° |
| 2026-04-30 13:18 | 27.67947 | -82.83963 | 960 ft | 144 kts | 212° |
| 2026-04-30 13:18 | 27.66164 | -82.85020 | 953 ft | 146 kts | 212° |
| 2026-04-30 13:18 | 27.65276 | -82.85555 | 952 ft | 143 kts | 212° |
| 2026-04-30 13:19 | 27.64384 | -82.86092 | 966 ft | 142 kts | 212° |
| 2026-04-30 13:19 | 27.63497 | -82.86638 | 962 ft | 141 kts | 212° |
| 2026-04-30 13:19 | 27.62608 | -82.87169 | 965 ft | 141 kts | 212° |
| 2026-04-30 13:19 | 27.61722 | -82.87721 | 962 ft | 149 kts | 212° |
| 2026-04-30 13:20 | 27.60815 | -82.88271 | 958 ft | 150 kts | 212° |
| 2026-04-30 13:20 | 27.59915 | -82.88808 | 957 ft | 149 kts | 212° |
| 2026-04-30 13:20 | 27.59014 | -82.89355 | 955 ft | 150 kts | 212° |
| 2026-04-30 13:20 | 27.58108 | -82.89905 | 957 ft | 149 kts | 212° |
| 2026-04-30 13:21 | 27.57209 | -82.90446 | 954 ft | 145 kts | 212° |
| 2026-04-30 13:21 | 27.56332 | -82.90982 | 953 ft | 145 kts | 212° |
| 2026-04-30 13:21 | 27.55449 | -82.91526 | 952 ft | 148 kts | 212° |
| 2026-04-30 13:22 | 27.53638 | -82.92628 | 952 ft | 144 kts | 212° |
| 2026-04-30 13:22 | 27.52739 | -82.93164 | 953 ft | 147 kts | 212° |
| 2026-04-30 13:22 | 27.50977 | -82.94313 | 958 ft | 146 kts | 220° |
| 2026-04-30 13:23 | 27.50151 | -82.94968 | 955 ft | 148 kts | 218° |
| 2026-04-30 13:23 | 27.48501 | -82.96266 | 961 ft | 144 kts | 218° |
| 2026-04-30 13:24 | 27.46851 | -82.97566 | 956 ft | 145 kts | 218° |
| 2026-04-30 13:24 | 27.45209 | -82.98843 | 961 ft | 145 kts | 218° |
| 2026-04-30 13:25 | 27.43545 | -83.00153 | 957 ft | 147 kts | 218° |
| 2026-04-30 13:25 | 27.41873 | -83.01476 | 966 ft | 147 kts | 218° |
| 2026-04-30 13:26 | 27.39380 | -83.03443 | 961 ft | 144 kts | 218° |
| 2026-04-30 13:26 | 27.37736 | -83.04719 | 961 ft | 146 kts | 218° |
| 2026-04-30 13:27 | 27.36083 | -83.06013 | 967 ft | 146 kts | 218° |
| 2026-04-30 13:28 | 27.33616 | -83.07977 | 964 ft | 144 kts | 218° |
| 2026-04-30 13:28 | 27.31952 | -83.09290 | 969 ft | 144 kts | 218° |
| 2026-04-30 13:28 | 27.31115 | -83.09954 | 963 ft | 143 kts | 218° |
| 2026-04-30 13:29 | 27.29455 | -83.11266 | 962 ft | 145 kts | 218° |
| 2026-04-30 13:29 | 27.27820 | -83.12584 | 957 ft | 145 kts | 216° |
| 2026-04-30 13:30 | 27.25239 | -83.14432 | 961 ft | 148 kts | 215° |
| 2026-04-30 13:31 | 27.23521 | -83.15648 | 959 ft | 145 kts | 215° |
| 2026-04-30 13:31 | 27.20977 | -83.17439 | 963 ft | 143 kts | 215° |
| 2026-04-30 13:32 | 27.19274 | -83.18638 | 965 ft | 144 kts | 215° |
| 2026-04-30 13:32 | 27.17562 | -83.19846 | 963 ft | 145 kts | 215° |
| 2026-04-30 13:33 | 27.15837 | -83.21053 | 966 ft | 147 kts | 215° |
| 2026-04-30 13:33 | 27.14111 | -83.22276 | 963 ft | 146 kts | 215° |
| 2026-04-30 13:34 | 27.13254 | -83.22889 | 964 ft | 146 kts | 215° |
| 2026-04-30 13:34 | 27.10695 | -83.24697 | 959 ft | 146 kts | 215° |
| 2026-04-30 13:35 | 27.09858 | -83.25290 | 961 ft | 144 kts | 215° |
| 2026-04-30 13:35 | 27.08159 | -83.26480 | 964 ft | 144 kts | 215° |
| 2026-04-30 13:36 | 27.06454 | -83.27684 | 965 ft | 145 kts | 215° |
| 2026-04-30 13:36 | 27.05601 | -83.28296 | 968 ft | 147 kts | 215° |
| 2026-04-30 13:36 | 27.03900 | -83.29524 | 965 ft | 148 kts | 215° |
| 2026-04-30 13:37 | 27.03039 | -83.30139 | 961 ft | 147 kts | 215° |
| 2026-04-30 13:37 | 27.01334 | -83.31346 | 962 ft | 145 kts | 215° |
| 2026-04-30 13:38 | 26.99655 | -83.32567 | 961 ft | 144 kts | 215° |
| 2026-04-30 13:38 | 26.98814 | -83.33174 | 963 ft | 145 kts | 215° |
| 2026-04-30 13:38 | 26.97175 | -83.34500 | 965 ft | 145 kts | 220° |
| 2026-04-30 13:39 | 26.95587 | -83.35889 | 959 ft | 144 kts | 220° |
| 2026-04-30 13:39 | 26.94001 | -83.37271 | 958 ft | 146 kts | 220° |
| 2026-04-30 13:40 | 26.93223 | -83.37957 | 959 ft | 144 kts | 220° |
| 2026-04-30 13:40 | 26.92434 | -83.38649 | 964 ft | 141 kts | 220° |
| 2026-04-30 13:40 | 26.91653 | -83.39334 | 959 ft | 144 kts | 220° |
| 2026-04-30 13:40 | 26.90853 | -83.40026 | 961 ft | 145 kts | 220° |
| 2026-04-30 13:41 | 26.90054 | -83.40723 | 964 ft | 149 kts | 220° |
| 2026-04-30 13:41 | 26.89257 | -83.41421 | 966 ft | 145 kts | 220° |
| 2026-04-30 13:41 | 26.88470 | -83.42120 | 965 ft | 144 kts | 220° |
| 2026-04-30 13:41 | 26.87671 | -83.42795 | 965 ft | 144 kts | 218° |
| 2026-04-30 13:42 | 26.86866 | -83.43455 | 970 ft | 143 kts | 218° |
| 2026-04-30 13:42 | 26.86052 | -83.44116 | 970 ft | 145 kts | 218° |
| 2026-04-30 13:42 | 26.84440 | -83.45464 | 970 ft | 144 kts | 221° |
| 2026-04-30 13:43 | 26.83660 | -83.46188 | 959 ft | 146 kts | 221° |
| 2026-04-30 13:43 | 26.82873 | -83.46902 | 960 ft | 145 kts | 221° |
| 2026-04-30 13:43 | 26.82096 | -83.47610 | 962 ft | 144 kts | 221° |
| 2026-04-30 13:43 | 26.81310 | -83.48326 | 963 ft | 144 kts | 221° |
| 2026-04-30 13:44 | 26.80541 | -83.49036 | 959 ft | 145 kts | 221° |
| 2026-04-30 13:44 | 26.79766 | -83.49755 | 960 ft | 144 kts | 221° |
| 2026-04-30 13:44 | 26.78995 | -83.50459 | 961 ft | 144 kts | 221° |
| 2026-04-30 13:44 | 26.78215 | -83.51164 | 963 ft | 144 kts | 221° |
| 2026-04-30 13:45 | 26.76641 | -83.52578 | 723 ft | 150 kts | 218° |
| 2026-04-30 13:45 | 26.75766 | -83.53149 | 1084 ft | 134 kts | 212° |
| 2026-04-30 13:45 | 26.75019 | -83.53629 | 866 ft | 111 kts | 212° |
| 2026-04-30 13:46 | 26.74430 | -83.53996 | 816 ft | 82 kts | 213° |
| 2026-04-30 13:46 | 26.73963 | -83.54271 | 655 ft | 70 kts | 214° |
| 2026-04-30 13:46 | 26.73572 | -83.54495 | 561 ft | 57 kts | 213° |
| 2026-04-30 13:46 | 26.73237 | -83.54698 | 470 ft | 50 kts | 218° |
| 2026-04-30 13:47 | 26.72978 | -83.54919 | 403 ft | 44 kts | 228° |
| 2026-04-30 13:47 | 26.72822 | -83.55047 | 410 ft | 40 kts | 229° |
| 2026-04-30 13:47 | 26.72645 | -83.55247 | 371 ft | 33 kts | 254° |
| 2026-04-30 13:47 | 26.72573 | -83.55454 | 352 ft | 26 kts | 281° |
| 2026-04-30 13:48 | 26.72648 | -83.55688 | 330 ft | 39 kts | 302° |
| 2026-04-30 13:48 | 26.72762 | -83.55938 | 397 ft | 33 kts | 301° |
| 2026-04-30 13:48 | 26.72909 | -83.56130 | 388 ft | 36 kts | 336° |
| 2026-04-30 13:48 | 26.73108 | -83.56180 | 382 ft | 28 kts | 19° |
| 2026-04-30 13:49 | 26.73266 | -83.55997 | 303 ft | 35 kts | 71° |
| 2026-04-30 13:49 | 26.73322 | -83.55753 | 223 ft | 29 kts | 108° |
| 2026-04-30 13:49 | 26.73235 | -83.55584 | 183 ft | 25 kts | 155° |
| 2026-04-30 13:49 | 26.73084 | -83.55561 | 167 ft | 15 kts | 210° |
| 2026-04-30 13:50 | 26.73015 | -83.55622 | 167 ft | 8 kts | 241° |
| 2026-04-30 13:50 | 26.72955 | -83.55649 | 178 ft | 7 kts | 279° |
| 2026-04-30 13:50 | 26.72963 | -83.55685 | 167 ft | 6 kts | 282° |
| 2026-04-30 13:51 | 26.72971 | -83.55710 | 150 ft | 2 kts | 287° |
| 2026-04-30 13:51 | 26.72973 | -83.55716 | 144 ft | 1 kts | 290° |
| 2026-04-30 13:51 | 26.72972 | -83.55722 | 138 ft | 1 kts | 294° |
| 2026-04-30 13:51 | 26.72975 | -83.55728 | 133 ft | 0 kts | 298° |
| 2026-04-30 13:52 | 26.72978 | -83.55732 | 136 ft | 1 kts | 301° |
| 2026-04-30 13:52 | 26.72979 | -83.55735 | 133 ft | 1 kts | 304° |
| 2026-04-30 13:52 | 26.72980 | -83.55736 | 133 ft | 1 kts | 312° |
| 2026-04-30 13:53 | 26.72967 | -83.55775 | 184 ft | 15 kts | 299° |
| 2026-04-30 13:53 | 26.73026 | -83.55908 | 258 ft | 28 kts | 322° |
| 2026-04-30 13:53 | 26.73244 | -83.55834 | 290 ft | 40 kts | 94° |
| 2026-04-30 13:54 | 26.73268 | -83.55581 | 272 ft | 37 kts | 136° |
| 2026-04-30 13:54 | 26.73014 | -83.55407 | 303 ft | 41 kts | 177° |
| 2026-04-30 13:54 | 26.72803 | -83.55296 | 371 ft | 28 kts | 194° |
| 2026-04-30 13:54 | 26.72630 | -83.55320 | 373 ft | 34 kts | 229° |
| 2026-04-30 13:55 | 26.72607 | -83.55666 | 396 ft | 56 kts | 278° |
| 2026-04-30 13:55 | 26.72789 | -83.56076 | 407 ft | 55 kts | 308° |
| 2026-04-30 13:55 | 26.73111 | -83.56198 | 390 ft | 59 kts | 13° |
| 2026-04-30 13:55 | 26.73309 | -83.55786 | 287 ft | 65 kts | 102° |
| 2026-04-30 13:56 | 26.73021 | -83.55591 | 200 ft | 42 kts | 220° |
| 2026-04-30 13:56 | 26.72967 | -83.55693 | 154 ft | 3 kts | 282° |
| 2026-04-30 13:56 | 26.72972 | -83.55713 | 139 ft | 2 kts | 266° |
| 2026-04-30 13:56 | 26.72975 | -83.55724 | 133 ft | 1 kts | 282° |
| 2026-04-30 13:57 | 26.72979 | -83.55731 | 132 ft | 0 kts | 282° |
| 2026-04-30 13:57 | 26.72981 | -83.55734 | 134 ft | 2 kts | 282° |
| 2026-04-30 13:57 | 26.73004 | -83.55732 | 173 ft | 20 kts | 316° |
| 2026-04-30 13:58 | 26.73225 | -83.55669 | 440 ft | 35 kts | 42° |
| 2026-04-30 13:58 | 26.73715 | -83.55200 | 1095 ft | 60 kts | 50° |
| 2026-04-30 13:58 | 26.74027 | -83.54837 | 1448 ft | 79 kts | 48° |
| 2026-04-30 13:59 | 26.74450 | -83.54328 | 1498 ft | 108 kts | 47° |
| 2026-04-30 13:59 | 26.75029 | -83.53669 | 1281 ft | 123 kts | 44° |
| 2026-04-30 13:59 | 26.75661 | -83.52999 | 1129 ft | 132 kts | 43° |
| 2026-04-30 13:59 | 26.76407 | -83.52259 | 1089 ft | 155 kts | 41° |
| 2026-04-30 14:00 | 26.77241 | -83.51482 | 1024 ft | 152 kts | 39° |
| 2026-04-30 14:00 | 26.78887 | -83.49932 | 996 ft | 157 kts | 39° |
| 2026-04-30 14:00 | 26.79728 | -83.49150 | 993 ft | 156 kts | 39° |
| 2026-04-30 14:01 | 26.80567 | -83.48380 | 992 ft | 155 kts | 39° |
| 2026-04-30 14:01 | 26.81401 | -83.47609 | 993 ft | 156 kts | 39° |
| 2026-04-30 14:01 | 26.82227 | -83.46834 | 992 ft | 155 kts | 39° |
| 2026-04-30 14:01 | 26.83054 | -83.46057 | 993 ft | 153 kts | 39° |
| 2026-04-30 14:02 | 26.83879 | -83.45294 | 994 ft | 155 kts | 39° |
| 2026-04-30 14:02 | 26.84713 | -83.44516 | 995 ft | 155 kts | 39° |
| 2026-04-30 14:02 | 26.85549 | -83.43741 | 994 ft | 157 kts | 39° |
| 2026-04-30 14:02 | 26.86362 | -83.42975 | 989 ft | 155 kts | 39° |
| 2026-04-30 14:03 | 26.87192 | -83.42194 | 990 ft | 156 kts | 39° |
| 2026-04-30 14:03 | 26.88028 | -83.41411 | 993 ft | 157 kts | 39° |
| 2026-04-30 14:03 | 26.88865 | -83.40641 | 994 ft | 156 kts | 39° |
| 2026-04-30 14:03 | 26.89697 | -83.39867 | 994 ft | 154 kts | 39° |
| 2026-04-30 14:04 | 26.90516 | -83.39097 | 993 ft | 155 kts | 39° |
| 2026-04-30 14:04 | 26.91346 | -83.38319 | 993 ft | 156 kts | 39° |
| 2026-04-30 14:04 | 26.92189 | -83.37539 | 993 ft | 158 kts | 39° |
| 2026-04-30 14:04 | 26.93025 | -83.36767 | 993 ft | 157 kts | 39° |
| 2026-04-30 14:05 | 26.93852 | -83.35997 | 991 ft | 154 kts | 39° |
| 2026-04-30 14:05 | 26.94684 | -83.35230 | 993 ft | 155 kts | 39° |
| 2026-04-30 14:05 | 26.95515 | -83.34453 | 992 ft | 156 kts | 39° |
| 2026-04-30 14:05 | 26.96353 | -83.33678 | 994 ft | 156 kts | 39° |
| 2026-04-30 14:06 | 26.97185 | -83.32910 | 993 ft | 156 kts | 39° |
| 2026-04-30 14:06 | 26.98851 | -83.31363 | 989 ft | 156 kts | 39° |
| 2026-04-30 14:07 | 27.00519 | -83.29811 | 993 ft | 155 kts | 39° |
| 2026-04-30 14:07 | 27.01357 | -83.29040 | 1000 ft | 155 kts | 39° |
| 2026-04-30 14:07 | 27.02180 | -83.28265 | 995 ft | 153 kts | 39° |
| 2026-04-30 14:08 | 27.03809 | -83.26720 | 1000 ft | 155 kts | 39° |
| 2026-04-30 14:08 | 27.04634 | -83.25939 | 997 ft | 155 kts | 39° |
| 2026-04-30 14:08 | 27.06280 | -83.24373 | 995 ft | 156 kts | 39° |
| 2026-04-30 14:09 | 27.07107 | -83.23580 | 994 ft | 157 kts | 39° |
| 2026-04-30 14:09 | 27.07922 | -83.22801 | 995 ft | 155 kts | 39° |
| 2026-04-30 14:09 | 27.09576 | -83.21224 | 995 ft | 156 kts | 39° |
| 2026-04-30 14:10 | 27.10410 | -83.20434 | 992 ft | 158 kts | 39° |
| 2026-04-30 14:10 | 27.11236 | -83.19643 | 994 ft | 154 kts | 39° |
| 2026-04-30 14:10 | 27.12057 | -83.18864 | 994 ft | 155 kts | 39° |
| 2026-04-30 14:10 | 27.12879 | -83.18077 | 993 ft | 153 kts | 39° |
| 2026-04-30 14:11 | 27.13694 | -83.17300 | 993 ft | 153 kts | 39° |
| 2026-04-30 14:11 | 27.14511 | -83.16523 | 994 ft | 155 kts | 39° |
| 2026-04-30 14:11 | 27.15325 | -83.15745 | 993 ft | 154 kts | 39° |
| 2026-04-30 14:11 | 27.16145 | -83.14964 | 994 ft | 155 kts | 39° |
| 2026-04-30 14:12 | 27.16970 | -83.14188 | 993 ft | 154 kts | 39° |
| 2026-04-30 14:12 | 27.17797 | -83.13409 | 996 ft | 155 kts | 39° |
| 2026-04-30 14:12 | 27.18619 | -83.12632 | 989 ft | 153 kts | 39° |
| 2026-04-30 14:12 | 27.19160 | -83.12117 | 992 ft | 154 kts | 39° |
| 2026-04-30 14:13 | 27.20259 | -83.11081 | 988 ft | 154 kts | 38° |
| 2026-04-30 14:13 | 27.21078 | -83.10304 | 991 ft | 155 kts | 39° |
| 2026-04-30 14:13 | 27.21898 | -83.09527 | 992 ft | 153 kts | 39° |
| 2026-04-30 14:13 | 27.22715 | -83.08755 | 991 ft | 153 kts | 39° |
| 2026-04-30 14:14 | 27.23529 | -83.07982 | 992 ft | 154 kts | 39° |
| 2026-04-30 14:14 | 27.24340 | -83.07212 | 991 ft | 155 kts | 39° |
| 2026-04-30 14:14 | 27.25168 | -83.06426 | 990 ft | 154 kts | 39° |
| 2026-04-30 14:14 | 27.25991 | -83.05643 | 988 ft | 156 kts | 39° |
| 2026-04-30 14:15 | 27.26809 | -83.04867 | 994 ft | 154 kts | 39° |
| 2026-04-30 14:15 | 27.27630 | -83.04095 | 993 ft | 152 kts | 39° |
| 2026-04-30 14:15 | 27.28440 | -83.03332 | 995 ft | 153 kts | 39° |
| 2026-04-30 14:15 | 27.29263 | -83.02550 | 992 ft | 155 kts | 39° |
| 2026-04-30 14:16 | 27.30089 | -83.01770 | 996 ft | 154 kts | 39° |
| 2026-04-30 14:16 | 27.30904 | -83.01000 | 996 ft | 153 kts | 39° |
| 2026-04-30 14:16 | 27.31722 | -83.00221 | 992 ft | 155 kts | 39° |
| 2026-04-30 14:16 | 27.32541 | -82.99424 | 992 ft | 153 kts | 39° |
| 2026-04-30 14:17 | 27.33353 | -82.98641 | 992 ft | 155 kts | 39° |
| 2026-04-30 14:17 | 27.34175 | -82.97847 | 993 ft | 156 kts | 39° |
| 2026-04-30 14:17 | 27.35003 | -82.97049 | 989 ft | 154 kts | 39° |
| 2026-04-30 14:17 | 27.35821 | -82.96255 | 989 ft | 157 kts | 39° |
| 2026-04-30 14:18 | 27.36646 | -82.95473 | 994 ft | 154 kts | 39° |
| 2026-04-30 14:18 | 27.37458 | -82.94697 | 992 ft | 153 kts | 39° |
| 2026-04-30 14:18 | 27.39086 | -82.93137 | 991 ft | 154 kts | 39° |
| 2026-04-30 14:19 | 27.40715 | -82.91577 | 997 ft | 155 kts | 39° |
| 2026-04-30 14:19 | 27.41540 | -82.90789 | 997 ft | 156 kts | 39° |
| 2026-04-30 14:19 | 27.42356 | -82.90006 | 995 ft | 154 kts | 39° |
| 2026-04-30 14:20 | 27.43183 | -82.89218 | 992 ft | 156 kts | 39° |
| 2026-04-30 14:20 | 27.44005 | -82.88433 | 992 ft | 156 kts | 39° |
| 2026-04-30 14:20 | 27.45648 | -82.86849 | 991 ft | 155 kts | 39° |
| 2026-04-30 14:21 | 27.46467 | -82.86054 | 993 ft | 155 kts | 39° |
| 2026-04-30 14:21 | 27.47285 | -82.85268 | 988 ft | 155 kts | 39° |
| 2026-04-30 14:21 | 27.48922 | -82.83682 | 991 ft | 155 kts | 39° |
| 2026-04-30 14:22 | 27.49732 | -82.82905 | 989 ft | 153 kts | 39° |
| 2026-04-30 14:22 | 27.51374 | -82.81341 | 989 ft | 156 kts | 39° |
| 2026-04-30 14:22 | 27.52195 | -82.80544 | 988 ft | 156 kts | 39° |
| 2026-04-30 14:23 | 27.53827 | -82.78977 | 982 ft | 153 kts | 39° |
| 2026-04-30 14:23 | 27.55442 | -82.77405 | 981 ft | 153 kts | 39° |
| 2026-04-30 14:24 | 27.57086 | -82.75847 | 977 ft | 156 kts | 39° |
| 2026-04-30 14:24 | 27.57903 | -82.75059 | 979 ft | 155 kts | 39° |
| 2026-04-30 14:25 | 27.59549 | -82.73468 | 979 ft | 157 kts | 39° |
| 2026-04-30 14:25 | 27.61200 | -82.71854 | 975 ft | 152 kts | 39° |
| 2026-04-30 14:26 | 27.62842 | -82.70279 | 984 ft | 155 kts | 39° |
| 2026-04-30 14:26 | 27.63648 | -82.69506 | 976 ft | 151 kts | 39° |
| 2026-04-30 14:26 | 27.65274 | -82.67972 | 973 ft | 154 kts | 39° |
| 2026-04-30 14:27 | 27.66096 | -82.67186 | 973 ft | 156 kts | 39° |
| 2026-04-30 14:27 | 27.66925 | -82.66385 | 972 ft | 157 kts | 39° |
| 2026-04-30 14:27 | 27.67750 | -82.65582 | 969 ft | 155 kts | 39° |
| 2026-04-30 14:28 | 27.69409 | -82.64000 | 971 ft | 156 kts | 39° |
| 2026-04-30 14:28 | 27.70241 | -82.63216 | 967 ft | 155 kts | 39° |
| 2026-04-30 14:28 | 27.71065 | -82.62429 | 967 ft | 155 kts | 39° |
| 2026-04-30 14:28 | 27.71893 | -82.61641 | 968 ft | 156 kts | 39° |
| 2026-04-30 14:29 | 27.73543 | -82.60067 | 972 ft | 156 kts | 39° |
| 2026-04-30 14:29 | 27.74921 | -82.58750 | 970 ft | 157 kts | 39° |
| 2026-04-30 14:30 | 27.77678 | -82.56112 | 968 ft | 155 kts | 39° |
| 2026-04-30 14:31 | 27.79326 | -82.54551 | 973 ft | 155 kts | 39° |
| 2026-04-30 14:31 | 27.80957 | -82.52989 | 972 ft | 156 kts | 39° |
| 2026-04-30 14:31 | 27.81784 | -82.52206 | 973 ft | 155 kts | 39° |
| 2026-04-30 14:32 | 27.83446 | -82.50605 | 983 ft | 156 kts | 39° |
| 2026-04-30 14:32 | 27.84282 | -82.49810 | 1012 ft | 157 kts | 39° |
| 2026-04-30 14:32 | 27.85117 | -82.49003 | 979 ft | 156 kts | 39° |
| 2026-04-30 14:33 | 27.85935 | -82.48187 | 970 ft | 156 kts | 39° |
| 2026-04-30 14:33 | 27.87567 | -82.46609 | 971 ft | 154 kts | 38° |
| 2026-04-30 14:33 | 27.88368 | -82.45832 | 796 ft | 144 kts | 37° |
| 2026-04-30 14:34 | 27.88864 | -82.45380 | 947 ft | 131 kts | 37° |
| 2026-04-30 14:34 | 27.89564 | -82.44844 | 1135 ft | 118 kts | 26° |
| 2026-04-30 14:34 | 27.90325 | -82.44495 | 802 ft | 115 kts | 11° |
| 2026-04-30 14:34 | 27.91087 | -82.44435 | 625 ft | 107 kts | 352° |
| 2026-04-30 14:35 | 27.92363 | -82.44832 | 600 ft | 83 kts | 335° |
| 2026-04-30 14:35 | 27.92855 | -82.45069 | 538 ft | 70 kts | 332° |
| 2026-04-30 14:35 | 27.93225 | -82.45281 | 477 ft | 50 kts | 331° |
| 2026-04-30 14:36 | 27.93489 | -82.45445 | 326 ft | 38 kts | 322° |
| 2026-04-30 14:36 | 27.93716 | -82.45534 | 247 ft | 33 kts | 336° |
| 2026-04-30 14:36 | 27.93902 | -82.45604 | 161 ft | 23 kts | 337° |
| 2026-04-30 14:36 | 27.94012 | -82.45738 | 139 ft | 21 kts | 263° |
| 2026-04-30 14:37 | 27.94063 | -82.45831 | 61 ft | 16 kts | 218° |
| 2026-04-30 14:37 | 27.94010 | -82.45905 | 59 ft | 10 kts | 179° |
| 2026-04-30 14:37 | 27.93967 | -82.45942 | 32 ft | 4 kts | 169° |
| 2026-04-30 14:37 | 27.93943 | -82.45944 | 37 ft | 3 kts | 159° |
| 2026-04-30 14:38 | 27.93926 | -82.45946 | 23 ft | 1 kts | 153° |
| 2026-04-30 14:38 | 27.93923 | -82.45948 | 16 ft | 0 kts | 150° |
| 2026-04-30 14:38 | 27.93921 | -82.45947 | 11 ft | 0 kts | 148° |
| 2026-04-30 14:42 | 27.93921 | -82.45954 | 22 ft | 4 kts | 158° |
| 2026-04-30 14:42 | 27.93887 | -82.45991 | 116 ft | 21 kts | 223° |
| 2026-04-30 14:42 | 27.93706 | -82.46415 | 368 ft | 91 kts | 251° |
| 2026-04-30 14:43 | 27.93484 | -82.47164 | 473 ft | 102 kts | 251° |
| 2026-04-30 14:43 | 27.93264 | -82.47937 | 503 ft | 105 kts | 252° |
| 2026-04-30 14:43 | 27.93052 | -82.48706 | 666 ft | 101 kts | 254° |
| 2026-04-30 14:43 | 27.92872 | -82.49486 | 598 ft | 104 kts | 257° |
| 2026-04-30 14:44 | 27.92716 | -82.50291 | 634 ft | 105 kts | 257° |
| 2026-04-30 14:44 | 27.92574 | -82.51099 | 633 ft | 106 kts | 258° |
| 2026-04-30 14:44 | 27.92435 | -82.51924 | 634 ft | 107 kts | 259° |
| 2026-04-30 14:44 | 27.92300 | -82.52751 | 577 ft | 106 kts | 259° |
| 2026-04-30 14:45 | 27.92172 | -82.53570 | 614 ft | 105 kts | 260° |
| 2026-04-30 14:45 | 27.92052 | -82.54374 | 671 ft | 103 kts | 260° |
| 2026-04-30 14:45 | 27.91941 | -82.55155 | 713 ft | 99 kts | 262° |
| 2026-04-30 14:45 | 27.91838 | -82.55923 | 769 ft | 98 kts | 262° |
| 2026-04-30 14:46 | 27.91743 | -82.56681 | 819 ft | 97 kts | 265° |
| 2026-04-30 14:46 | 27.91654 | -82.57436 | 888 ft | 97 kts | 264° |
| 2026-04-30 14:46 | 27.91572 | -82.58191 | 979 ft | 97 kts | 264° |
| 2026-04-30 14:46 | 27.91497 | -82.58942 | 1108 ft | 95 kts | 267° |
| 2026-04-30 14:47 | 27.91429 | -82.59668 | 1316 ft | 91 kts | 265° |
| 2026-04-30 14:47 | 27.91372 | -82.60360 | 1650 ft | 85 kts | 267° |
| 2026-04-30 14:47 | 27.91323 | -82.61057 | 1580 ft | 93 kts | 267° |
| 2026-04-30 14:47 | 27.91279 | -82.61794 | 1508 ft | 95 kts | 266° |
| 2026-04-30 14:48 | 27.91241 | -82.62559 | 1388 ft | 99 kts | 266° |
| 2026-04-30 14:48 | 27.91208 | -82.63349 | 1231 ft | 100 kts | 268° |
| 2026-04-30 14:48 | 27.91186 | -82.64114 | 1175 ft | 99 kts | 270° |
| 2026-04-30 14:48 | 27.91245 | -82.64890 | 1134 ft | 99 kts | 278° |
| 2026-04-30 14:49 | 27.91490 | -82.65602 | 1110 ft | 97 kts | 296° |
| 2026-04-30 14:49 | 27.91924 | -82.66196 | 1059 ft | 102 kts | 310° |
| 2026-04-30 14:49 | 27.92522 | -82.66692 | 891 ft | 111 kts | 325° |
| 2026-04-30 14:49 | 27.93091 | -82.67244 | 613 ft | 110 kts | 305° |
| 2026-04-30 14:50 | 27.92933 | -82.68924 | 373 ft | 101 kts | 219° |
| 2026-04-30 14:50 | 27.92338 | -82.69058 | 374 ft | 87 kts | 176° |
| 2026-04-30 14:51 | 27.91517 | -82.68934 | 83 ft | 29 kts | 167° |
| 2026-04-30 14:51 | 27.91430 | -82.68917 | 28 ft | 2 kts | 162° |
| 2026-04-30 14:51 | 27.91388 | -82.68911 | 18 ft | 4 kts | 161° |
| 2026-04-30 14:52 | 27.91356 | -82.68904 | 17 ft | 4 kts | 167° |
| 2026-04-30 14:52 | 27.91291 | -82.68890 | 16 ft | 0 kts | 173° |
| 2026-04-30 14:52 | 27.91277 | -82.68888 | 16 ft | 4 kts | 176° |
| 2026-04-30 14:53 | 27.91232 | -82.68973 | 18 ft | 7 kts | 257° |
| 2026-04-30 14:53 | 27.91210 | -82.69023 | 20 ft | 7 kts | 208° |
| 2026-04-30 14:54 | 27.91098 | -82.69017 | 19 ft | 9 kts | 195° |
| 2026-04-30 14:54 | 27.91062 | -82.69126 | 22 ft | 10 kts | 302° |
| 2026-04-30 14:55 | 27.91156 | -82.69261 | 20 ft | 12 kts | 308° |
| 2026-04-30 14:55 | 27.91210 | -82.69332 | 20 ft | 12 kts | 312° |
| 2026-04-30 14:55 | 27.91281 | -82.69452 | 20 ft | 7 kts | 285° |
| 2026-04-30 14:56 | 27.91305 | -82.69477 | 20 ft | 1 kts | 130° |